createdAt,value
2022-11-30T00:01:11.483Z,96099.66
2022-11-30T00:03:39.449Z,96106.44
2022-11-30T00:06:09.943Z,96097.38
2022-11-30T00:08:38.004Z,96102.94
2022-11-30T00:11:09.760Z,96025.06
2022-11-30T00:13:37.544Z,96092.16
2022-11-30T00:16:05.805Z,96099.19
2022-11-30T00:18:33.884Z,96045.09
2022-11-30T00:21:02.239Z,95985.06
2022-11-30T00:23:34.800Z,96100.22
2022-11-30T00:26:03.557Z,96107.13
2022-11-30T00:28:32.719Z,96084.09
2022-11-30T00:31:00.593Z,96097.81
2022-11-30T00:33:28.612Z,96111.31
2022-11-30T00:36:02.322Z,96110.84
2022-11-30T00:38:30.463Z,96110.75
2022-11-30T00:40:59.484Z,96077.31
2022-11-30T00:43:27.155Z,96101.09
2022-11-30T00:45:55.204Z,96109.72
2022-11-30T00:48:22.935Z,96108.91
2022-11-30T00:50:51.177Z,96112.00
2022-11-30T00:53:19.618Z,96111.31
2022-11-30T00:55:47.804Z,96117.66
2022-11-30T00:58:17.335Z,96121.50
2022-11-30T01:00:45.187Z,96124.34
2022-11-30T01:03:13.656Z,96123.06
2022-11-30T01:05:41.455Z,96117.75
2022-11-30T01:08:10.925Z,96120.38
2022-11-30T01:10:40.388Z,96124.34
2022-11-30T01:13:08.477Z,96125.38
2022-11-30T01:15:39.876Z,96056.53
2022-11-30T01:18:07.944Z,96074.34
2022-11-30T01:20:35.796Z,96099.84
2022-11-30T01:23:03.487Z,96056.63
2022-11-30T01:25:31.235Z,96130.78
2022-11-30T01:27:58.874Z,96117.75
2022-11-30T01:30:26.554Z,96114.22
2022-11-30T01:32:56.052Z,96126.13
2022-11-30T01:35:23.758Z,96127.41
2022-11-30T01:37:51.404Z,96129.00
2022-11-30T01:40:19.244Z,96128.84
2022-11-30T01:42:48.193Z,96125.38
2022-11-30T01:45:16.146Z,96126.38
2022-11-30T01:47:48.813Z,96129.19
2022-11-30T01:50:22.523Z,96124.91
2022-11-30T01:52:54.035Z,96126.50
2022-11-30T01:55:25.222Z,96130.69
2022-11-30T01:57:57.317Z,96124.34
2022-11-30T02:00:25.382Z,96125.69
2022-11-30T02:02:58.533Z,96057.66
2022-11-30T02:05:27.919Z,96121.50
2022-11-30T02:07:56.536Z,96124.66
2022-11-30T02:10:27.657Z,96124.91
2022-11-30T02:13:22.329Z,96104.63
2022-11-30T02:15:59.260Z,96116.28
2022-11-30T02:18:33.191Z,96120.59
2022-11-30T02:21:10.751Z,96114.47
2022-11-30T02:24:14.935Z,96120.72
2022-11-30T02:27:03.971Z,96120.97
2022-11-30T02:29:35.796Z,96130.25
2022-11-30T02:32:09.255Z,96126.84
2022-11-30T02:34:39.079Z,96132.94
2022-11-30T02:37:09.725Z,96140.19
2022-11-30T02:39:37.455Z,96099.56
2022-11-30T02:42:05.168Z,96145.19
2022-11-30T02:44:34.575Z,96130.09
2022-11-30T02:47:15.852Z,96104.59
2022-11-30T02:49:49.825Z,96151.75
2022-11-30T02:52:20.780Z,96039.03
2022-11-30T02:54:48.994Z,96147.69
2022-11-30T02:57:16.878Z,96127.47
2022-11-30T02:59:46.098Z,96135.88
2022-11-30T03:02:14.132Z,96140.06
2022-11-30T03:04:41.795Z,96146.41
2022-11-30T03:07:09.513Z,96145.97
2022-11-30T03:09:37.228Z,96145.75
2022-11-30T03:12:05.043Z,96144.97
2022-11-30T03:14:32.955Z,96142.03
2022-11-30T03:17:02.058Z,96146.66
2022-11-30T03:19:29.786Z,96153.47
2022-11-30T03:21:57.443Z,96142.69
2022-11-30T03:24:25.113Z,96156.63
2022-11-30T03:26:53.537Z,96149.84
2022-11-30T03:29:21.252Z,96153.81
2022-11-30T03:31:48.902Z,96156.88
2022-11-30T03:34:18.061Z,96147.47
2022-11-30T03:36:45.781Z,96159.03
2022-11-30T03:39:13.557Z,96166.97
2022-11-30T03:41:41.263Z,96163.53
2022-11-30T03:44:08.915Z,96131.88
2022-11-30T03:46:37.044Z,96162.41
2022-11-30T03:49:05.085Z,96135.66
2022-11-30T03:51:34.156Z,96171.56
2022-11-30T03:54:01.893Z,96170.69
2022-11-30T03:56:29.595Z,96164.56
2022-11-30T03:58:57.292Z,96159.34
2022-11-30T04:01:25.150Z,96172.34
2022-11-30T04:03:53.503Z,96169.66
2022-11-30T04:06:22.211Z,96132.00
2022-11-30T04:08:51.268Z,96173.69
2022-11-30T04:11:18.948Z,96164.03
2022-11-30T04:13:46.796Z,96161.22
2022-11-30T04:16:14.534Z,96139.53
2022-11-30T04:18:42.253Z,96159.06
2022-11-30T04:21:10.042Z,96117.69
2022-11-30T04:23:39.809Z,96139.44
2022-11-30T04:26:13.833Z,96158.63
2022-11-30T04:28:41.963Z,96167.66
2022-11-30T04:31:10.173Z,96160.41
2022-11-30T04:33:38.015Z,96168.56
2022-11-30T04:36:07.994Z,96160.09
2022-11-30T04:38:37.481Z,96164.31
2022-11-30T04:41:09.866Z,96155.66
2022-11-30T04:43:37.946Z,96167.63
2022-11-30T04:46:06.877Z,96169.88
2022-11-30T04:48:34.819Z,96070.13
2022-11-30T04:51:03.756Z,96074.94
2022-11-30T04:53:31.400Z,96182.81
2022-11-30T04:55:59.093Z,96105.78
2022-11-30T04:58:28.078Z,96168.94
2022-11-30T05:00:56.212Z,96177.03
2022-11-30T05:03:23.867Z,96176.78
2022-11-30T05:05:51.650Z,96178.13
2022-11-30T05:08:19.334Z,96097.03
2022-11-30T05:10:52.774Z,96192.47
2022-11-30T05:13:21.304Z,96105.50
2022-11-30T05:15:50.407Z,96186.81
2022-11-30T05:18:18.429Z,96170.88
2022-11-30T05:20:49.104Z,96188.97
2022-11-30T05:23:17.849Z,96188.75
2022-11-30T05:25:46.346Z,96184.22
2022-11-30T05:28:14.386Z,96191.81
2022-11-30T05:30:43.246Z,96192.69
2022-11-30T05:33:12.584Z,96181.81
2022-11-30T05:35:40.572Z,96188.38
2022-11-30T05:38:08.427Z,96173.38
2022-11-30T05:40:36.483Z,96122.91
2022-11-30T05:43:06.001Z,96196.50
2022-11-30T05:45:33.670Z,96199.91
2022-11-30T05:48:01.393Z,96198.22
2022-11-30T05:50:30.392Z,96206.66
2022-11-30T05:53:00.641Z,96204.50
2022-11-30T05:55:29.368Z,96186.34
2022-11-30T05:57:57.035Z,96201.63
2022-11-30T06:00:24.795Z,96201.25
2022-11-30T06:02:57.980Z,96198.09
2022-11-30T06:05:25.957Z,96194.56
2022-11-30T06:07:55.484Z,96208.00
2022-11-30T06:10:25.186Z,96209.13
2022-11-30T06:12:52.921Z,96196.19
2022-11-30T06:15:20.657Z,96194.81
2022-11-30T06:17:48.406Z,96193.94
2022-11-30T06:20:16.134Z,96194.38
2022-11-30T06:22:46.226Z,96200.78
2022-11-30T06:25:15.742Z,96199.06
2022-11-30T06:27:43.980Z,96202.25
2022-11-30T06:30:13.034Z,96194.13
2022-11-30T06:32:40.711Z,96198.66
2022-11-30T06:35:09.028Z,96204.59
2022-11-30T06:37:36.697Z,96117.56
2022-11-30T06:40:07.102Z,96174.63
2022-11-30T06:42:37.949Z,96200.13
2022-11-30T06:45:07.584Z,96210.69
2022-11-30T06:47:35.488Z,96198.06
2022-11-30T06:50:03.173Z,96190.72
2022-11-30T06:52:31.279Z,96196.59
2022-11-30T06:54:59.077Z,96189.16
2022-11-30T06:57:28.109Z,96113.03
2022-11-30T06:59:57.650Z,96095.38
2022-11-30T07:02:25.386Z,96044.91
2022-11-30T07:04:53.119Z,96103.75
2022-11-30T07:07:21.097Z,96095.50
2022-11-30T07:09:48.939Z,96180.59
2022-11-30T07:12:16.943Z,96183.56
2022-11-30T07:14:44.836Z,96214.34
2022-11-30T07:17:14.173Z,96218.13
2022-11-30T07:19:41.929Z,96194.97
2022-11-30T07:22:09.659Z,96165.88
2022-11-30T07:24:51.275Z,96113.16
2022-11-30T07:27:19.109Z,96183.63
2022-11-30T07:29:48.849Z,96210.16
2022-11-30T07:32:18.260Z,96223.44
2022-11-30T07:34:46.969Z,96212.91
2022-11-30T07:37:15.003Z,96190.31
2022-11-30T07:39:42.731Z,96219.91
2022-11-30T07:42:10.893Z,96226.41
2022-11-30T07:44:38.633Z,96166.56
2022-11-30T07:47:06.408Z,96187.44
2022-11-30T07:49:35.618Z,96228.97
2022-11-30T07:52:04.513Z,96223.28
2022-11-30T07:54:32.278Z,96224.56
2022-11-30T07:56:59.943Z,96198.44
2022-11-30T07:59:27.767Z,96222.06
2022-11-30T08:01:55.598Z,96238.94
2022-11-30T08:04:23.530Z,96229.09
2022-11-30T08:06:54.316Z,96234.53
2022-11-30T08:09:22.763Z,96071.47
2022-11-30T08:11:50.974Z,96196.38
2022-11-30T08:14:18.712Z,96189.56
2022-11-30T08:16:46.510Z,96081.16
2022-11-30T08:19:14.426Z,96207.28
2022-11-30T08:21:42.180Z,96202.41
2022-11-30T08:24:13.579Z,96237.69
2022-11-30T08:26:41.322Z,96235.41
2022-11-30T08:29:10.963Z,96230.81
2022-11-30T08:31:40.514Z,96158.06
2022-11-30T08:34:11.050Z,96223.75
2022-11-30T08:36:39.451Z,96235.34
2022-11-30T08:39:09.001Z,96234.56
2022-11-30T08:41:39.114Z,96216.06
2022-11-30T08:44:07.520Z,96213.22
2022-11-30T08:46:50.833Z,96246.44
2022-11-30T08:49:23.172Z,96266.84
2022-11-30T08:52:16.340Z,96181.16
2022-11-30T08:54:46.265Z,96244.53
2022-11-30T08:57:15.665Z,96230.09
2022-11-30T08:59:43.389Z,96272.41
2022-11-30T09:02:11.568Z,96213.53
2022-11-30T09:04:39.668Z,96228.59
2022-11-30T09:07:09.473Z,96182.63
2022-11-30T09:09:37.617Z,96267.56
2022-11-30T09:12:05.729Z,96254.72
2022-11-30T09:14:34.882Z,96265.75
2022-11-30T09:17:02.594Z,96248.84
2022-11-30T09:19:30.497Z,96249.25
2022-11-30T09:21:58.217Z,96264.84
2022-11-30T09:24:28.267Z,96240.88
2022-11-30T09:26:56.492Z,96173.94
2022-11-30T09:29:24.338Z,96258.97
2022-11-30T09:31:53.474Z,96263.72
2022-11-30T09:34:21.329Z,96164.44
2022-11-30T09:36:49.105Z,96191.59
2022-11-30T09:39:16.867Z,96141.41
2022-11-30T09:42:07.299Z,96253.63
2022-11-30T09:44:44.447Z,96254.53
2022-11-30T09:47:33.742Z,96255.09
2022-11-30T09:50:04.114Z,96256.47
2022-11-30T09:52:37.569Z,96252.59
2022-11-30T09:55:09.929Z,96255.47
2022-11-30T09:57:46.871Z,96113.44
2022-11-30T10:00:17.817Z,96240.59
2022-11-30T10:02:47.136Z,96254.75
2022-11-30T10:05:16.802Z,96177.19
2022-11-30T10:08:01.853Z,96249.34
2022-11-30T10:10:38.787Z,96229.69
2022-11-30T10:13:19.387Z,96228.69
2022-11-30T10:15:58.759Z,96249.34
2022-11-30T10:18:37.989Z,96113.63
2022-11-30T10:21:18.914Z,96248.63
2022-11-30T10:23:59.661Z,96251.59
2022-11-30T10:26:34.456Z,96096.47
2022-11-30T10:29:12.698Z,96233.34
2022-11-30T10:31:42.722Z,96239.34
2022-11-30T10:34:21.307Z,96255.56
2022-11-30T10:36:55.093Z,96257.72
2022-11-30T10:39:29.529Z,96132.56
2022-11-30T10:42:05.171Z,96168.09
2022-11-30T10:44:39.912Z,96208.59
2022-11-30T10:47:15.265Z,96254.44
2022-11-30T10:49:49.419Z,96132.63
2022-11-30T10:52:22.586Z,96206.41
2022-11-30T10:54:53.243Z,96244.53
2022-11-30T10:57:22.992Z,96239.31
2022-11-30T10:59:53.802Z,96119.44
2022-11-30T11:02:36.771Z,96153.00
2022-11-30T11:05:21.826Z,96164.25
2022-11-30T11:07:52.929Z,96067.28
2022-11-30T11:10:23.031Z,96195.81
2022-11-30T11:12:53.570Z,96219.03
2022-11-30T11:15:23.738Z,96192.97
2022-11-30T11:17:53.036Z,96065.16
2022-11-30T11:20:36.639Z,96148.50
2022-11-30T11:23:05.469Z,96205.09
2022-11-30T11:25:53.061Z,96224.69
2022-11-30T11:28:24.412Z,96202.81
2022-11-30T11:30:55.649Z,96220.28
2022-11-30T11:33:25.128Z,96111.56
2022-11-30T11:35:56.370Z,96138.88
2022-11-30T11:38:29.572Z,96113.81
2022-11-30T11:41:00.320Z,96133.22
2022-11-30T11:43:31.008Z,96166.50
2022-11-30T11:46:01.949Z,96197.13
2022-11-30T11:48:40.258Z,96203.25
2022-11-30T11:51:11.096Z,96153.72
2022-11-30T11:53:53.779Z,96214.72
2022-11-30T11:56:26.903Z,96215.16
2022-11-30T11:58:59.685Z,96222.06
2022-11-30T12:01:43.842Z,96211.63
2022-11-30T12:04:29.614Z,96220.16
2022-11-30T12:07:02.423Z,96218.31
2022-11-30T12:09:35.013Z,96226.28
2022-11-30T12:12:03.021Z,96182.72
2022-11-30T12:14:33.408Z,96164.38
2022-11-30T12:17:19.217Z,96212.91
2022-11-30T12:19:59.020Z,96191.69
2022-11-30T12:22:47.913Z,96132.84
2022-11-30T12:25:25.405Z,96210.06
2022-11-30T12:28:01.977Z,96099.97
2022-11-30T12:30:38.255Z,96233.66
2022-11-30T12:33:13.373Z,96190.13
2022-11-30T12:35:52.421Z,96143.38
2022-11-30T12:38:31.395Z,96193.53
2022-11-30T12:41:06.718Z,96169.13
2022-11-30T12:43:48.974Z,96171.72
2022-11-30T12:46:23.850Z,96074.34
2022-11-30T12:49:11.160Z,96238.31
2022-11-30T12:51:44.953Z,96185.91
2022-11-30T12:54:23.941Z,96164.25
2022-11-30T12:56:56.871Z,96188.75
2022-11-30T12:59:34.130Z,96064.72
2022-11-30T13:02:22.124Z,96154.50
2022-11-30T13:04:58.433Z,96102.34
2022-11-30T13:07:31.353Z,96198.94
2022-11-30T13:10:07.488Z,96175.69
2022-11-30T13:12:37.491Z,96143.41
2022-11-30T13:15:15.716Z,96206.47
2022-11-30T13:17:44.871Z,96205.78
2022-11-30T13:20:22.089Z,96188.31
2022-11-30T13:22:54.491Z,96200.53
2022-11-30T13:26:06.948Z,96188.28
2022-11-30T13:28:32.421Z,96179.91
2022-11-30T13:31:06.942Z,96182.16
2022-11-30T13:33:58.137Z,96211.31
2022-11-30T13:36:49.713Z,96211.75
2022-11-30T13:39:25.475Z,96204.50
2022-11-30T13:42:32.079Z,96179.91
2022-11-30T13:45:17.044Z,96128.31
2022-11-30T13:47:48.821Z,96122.88
2022-11-30T13:50:25.977Z,96171.50
2022-11-30T13:53:33.888Z,96213.69
2022-11-30T13:56:07.979Z,96232.19
2022-11-30T13:59:16.944Z,96211.09
2022-11-30T14:01:46.059Z,96195.06
2022-11-30T14:04:31.704Z,96223.66
2022-11-30T14:07:00.735Z,96137.06
2022-11-30T14:10:08.120Z,96226.50
2022-11-30T14:12:47.422Z,96220.94
2022-11-30T14:15:53.771Z,96228.31
2022-11-30T14:18:31.301Z,96192.50
2022-11-30T14:21:04.068Z,96146.13
2022-11-30T14:23:37.213Z,96122.09
2022-11-30T14:26:11.046Z,96197.94
2022-11-30T14:28:47.931Z,96134.44
2022-11-30T14:31:19.606Z,96210.75
2022-11-30T14:33:54.323Z,96223.81
2022-11-30T14:36:24.243Z,96217.69
2022-11-30T14:38:56.211Z,96229.03
2022-11-30T14:41:27.096Z,96240.94
2022-11-30T14:44:15.866Z,96230.72
2022-11-30T14:46:46.672Z,96233.56
2022-11-30T14:49:18.290Z,96149.88
2022-11-30T14:51:50.466Z,96235.25
2022-11-30T14:54:31.865Z,96086.13
2022-11-30T14:57:20.430Z,96249.75
2022-11-30T14:59:50.846Z,96244.75
2022-11-30T15:02:24.446Z,96242.16
2022-11-30T15:04:55.645Z,96122.56
2022-11-30T15:07:24.962Z,96061.75
2022-11-30T15:10:03.504Z,96127.34
2022-11-30T15:12:44.709Z,96065.19
2022-11-30T15:15:17.290Z,96240.09
2022-11-30T15:17:52.935Z,96248.03
2022-11-30T15:20:29.927Z,96234.91
2022-11-30T15:22:59.336Z,96160.72
2022-11-30T15:25:32.759Z,96213.09
2022-11-30T15:28:01.303Z,96165.31
2022-11-30T15:30:29.477Z,96199.81
2022-11-30T15:32:58.644Z,96194.72
2022-11-30T15:35:50.288Z,96078.59
2022-11-30T15:38:20.934Z,96249.72
2022-11-30T15:40:55.189Z,96183.88
2022-11-30T15:43:25.725Z,96183.00
2022-11-30T15:45:55.711Z,96206.03
2022-11-30T15:48:31.495Z,96207.94
2022-11-30T15:51:01.912Z,96045.44
2022-11-30T15:53:32.158Z,96248.69
2022-11-30T15:56:03.097Z,96257.88
2022-11-30T15:58:39.512Z,96253.34
2022-11-30T16:01:12.827Z,96228.22
2022-11-30T16:04:04.908Z,96265.19
2022-11-30T16:06:45.863Z,96254.19
2022-11-30T16:09:20.138Z,96225.53
2022-11-30T16:11:49.351Z,96167.81
2022-11-30T16:14:17.705Z,96143.94
2022-11-30T16:16:46.583Z,96149.44
2022-11-30T16:19:14.404Z,96261.19
2022-11-30T16:21:43.534Z,96140.53
2022-11-30T16:24:14.988Z,96181.78
2022-11-30T16:26:51.138Z,96163.47
2022-11-30T16:29:19.310Z,96141.41
2022-11-30T17:17:25.219Z,96278.63
2022-11-30T17:19:53.567Z,96274.06
2022-11-30T17:22:21.332Z,96282.53
2022-11-30T17:24:49.361Z,96280.84
2022-11-30T17:27:17.273Z,96280.50
2022-11-30T17:29:44.965Z,96281.16
2022-11-30T17:32:12.731Z,96264.16
2022-11-30T17:34:41.954Z,96260.25
2022-11-30T17:37:10.387Z,96279.69
2022-11-30T17:39:38.075Z,96288.75
2022-11-30T17:42:05.931Z,96279.47
2022-11-30T17:44:34.035Z,96277.19
2022-11-30T17:47:01.748Z,96262.81
2022-11-30T17:49:29.564Z,96243.91
2022-11-30T17:51:58.657Z,96261.91
2022-11-30T17:54:26.318Z,96291.13
2022-11-30T17:56:55.809Z,96280.81
2022-11-30T17:59:23.625Z,96300.31
2022-11-30T18:01:51.807Z,96288.13
2022-11-30T18:04:19.706Z,96287.44
2022-11-30T18:06:47.459Z,96194.94
2022-11-30T18:09:16.842Z,96283.16
2022-11-30T18:11:44.722Z,96293.50
2022-11-30T18:14:12.449Z,96270.75
2022-11-30T18:16:40.416Z,96248.69
2022-11-30T18:19:12.316Z,96278.63
2022-11-30T18:21:41.327Z,96250.91
2022-11-30T18:24:09.333Z,96299.31
2022-11-30T18:26:39.023Z,96269.63
2022-11-30T18:29:07.558Z,96293.16
2022-11-30T18:31:36.225Z,96281.34
2022-11-30T18:34:05.985Z,96300.09
2022-11-30T18:36:35.080Z,96304.22
2022-11-30T18:39:02.857Z,96309.84
2022-11-30T18:41:30.578Z,96306.75
2022-11-30T18:43:59.853Z,96319.34
2022-11-30T18:46:27.902Z,96272.28
2022-11-30T18:48:56.320Z,96318.09
2022-11-30T18:51:26.172Z,96317.31
2022-11-30T18:53:57.633Z,96317.31
2022-11-30T18:56:26.977Z,96315.38
2022-11-30T18:58:57.614Z,96309.94
2022-11-30T19:01:27.240Z,96315.81
2022-11-30T19:03:56.500Z,96318.69
2022-11-30T19:06:28.187Z,96312.91
2022-11-30T19:08:56.083Z,96300.59
2022-11-30T19:11:23.962Z,96272.41
2022-11-30T19:13:55.962Z,96323.09
2022-11-30T19:16:26.761Z,96321.59
2022-11-30T19:18:55.424Z,96303.88
2022-11-30T19:21:24.303Z,96305.22
2022-11-30T19:23:52.134Z,96304.66
2022-11-30T19:26:23.585Z,96343.28
2022-11-30T19:28:54.946Z,96317.91
2022-11-30T19:31:23.564Z,96314.50
2022-11-30T19:33:54.939Z,96263.00
2022-11-30T19:36:24.752Z,96316.50
2022-11-30T19:38:52.525Z,96301.41
2022-11-30T19:41:21.425Z,96316.25
2022-11-30T19:44:01.094Z,96273.78
2022-11-30T19:46:32.019Z,96322.75
2022-11-30T19:49:03.176Z,96264.03
2022-11-30T19:51:32.160Z,96316.69
2022-11-30T19:54:01.996Z,96315.44
2022-11-30T19:56:34.510Z,96330.78
2022-11-30T19:59:05.511Z,96317.66
2022-11-30T20:01:35.323Z,96328.13
2022-11-30T20:04:05.345Z,96328.38
2022-11-30T20:06:38.197Z,96343.00
2022-11-30T20:09:08.457Z,96307.69
2022-11-30T20:11:36.845Z,96309.16
2022-11-30T20:14:05.287Z,96269.56
2022-11-30T20:16:34.014Z,96321.72
2022-11-30T20:19:04.083Z,96282.94
2022-11-30T20:21:33.922Z,96317.53
2022-11-30T20:24:06.657Z,96330.69
2022-11-30T20:26:39.664Z,96329.56
2022-11-30T20:29:14.367Z,96327.66
2022-11-30T20:31:44.172Z,96323.47
2022-11-30T20:34:13.499Z,96301.47
2022-11-30T20:36:42.110Z,96312.25
2022-11-30T20:39:12.120Z,96306.31
2022-11-30T20:41:40.271Z,96329.59
2022-11-30T20:44:08.024Z,96264.63
2022-11-30T20:46:36.904Z,96325.47
2022-11-30T20:49:11.994Z,96303.13
2022-11-30T20:51:41.457Z,96326.50
2022-11-30T20:54:12.415Z,96324.13
2022-11-30T20:56:40.608Z,96300.31
2022-11-30T20:59:10.352Z,96332.13
2022-11-30T21:01:38.354Z,96330.47
2022-11-30T21:04:06.172Z,96270.25
2022-11-30T21:06:34.416Z,96301.91
2022-11-30T21:09:04.335Z,96340.47
2022-11-30T21:11:32.301Z,96335.31
2022-11-30T21:14:00.203Z,96308.13
2022-11-30T21:16:29.694Z,96281.97
2022-11-30T21:18:59.480Z,96342.72
2022-11-30T21:21:30.339Z,96341.06
2022-11-30T21:23:59.914Z,96333.00
2022-11-30T21:26:30.808Z,96347.69
2022-11-30T21:29:01.972Z,96330.31
2022-11-30T21:31:30.757Z,96341.97
2022-11-30T21:33:58.759Z,96337.00
2022-11-30T21:36:29.864Z,96345.31
2022-11-30T21:39:05.097Z,96260.16
2022-11-30T21:41:49.858Z,96276.09
2022-11-30T21:44:17.690Z,96341.63
2022-11-30T21:46:46.631Z,96333.44
2022-11-30T21:49:15.496Z,96339.31
2022-11-30T21:51:43.881Z,96324.19
2022-11-30T21:54:13.379Z,96338.94
2022-11-30T21:56:42.555Z,96322.44
2022-11-30T21:59:14.346Z,96339.22
2022-11-30T22:01:43.775Z,96325.03
2022-11-30T22:04:13.391Z,96328.66
2022-11-30T22:06:42.503Z,96333.72
2022-11-30T22:09:14.230Z,96327.44
2022-11-30T22:11:43.258Z,96325.47
2022-11-30T22:14:15.494Z,96326.28
2022-11-30T22:16:43.346Z,96237.13
2022-11-30T22:19:11.229Z,96333.88
2022-11-30T22:21:38.969Z,96330.25
2022-11-30T22:24:08.948Z,96329.03
2022-11-30T22:26:38.676Z,96337.84
2022-11-30T22:29:08.214Z,96339.00
2022-11-30T22:31:39.216Z,96320.06
2022-11-30T22:34:07.946Z,96310.44
2022-11-30T22:36:37.494Z,96323.81
2022-11-30T22:39:07.115Z,96307.25
2022-11-30T22:41:34.943Z,96330.41
2022-11-30T22:44:03.115Z,96316.66
2022-11-30T22:46:32.884Z,96305.88
2022-11-30T22:49:04.198Z,96247.34
2022-11-30T22:51:33.950Z,96274.84
2022-11-30T22:54:02.505Z,96340.19
2022-11-30T22:56:32.245Z,96285.09
2022-11-30T22:59:01.347Z,96336.47
2022-11-30T23:01:31.217Z,96345.09
2022-11-30T23:04:05.776Z,96339.81
2022-11-30T23:06:34.771Z,96287.50
2022-11-30T23:09:03.489Z,96337.03
2022-11-30T23:11:32.884Z,96341.25
2022-11-30T23:14:01.323Z,96203.81
2022-11-30T23:16:29.198Z,96337.41
2022-11-30T23:18:58.146Z,96297.22
2022-11-30T23:21:30.267Z,96206.41
2022-11-30T23:24:00.937Z,96221.03
2022-11-30T23:26:30.963Z,96297.19
2022-11-30T23:29:01.795Z,96257.34
2022-11-30T23:31:33.808Z,96320.28
2022-11-30T23:34:02.662Z,96321.72
2022-11-30T23:36:34.498Z,96307.25
2022-11-30T23:39:04.092Z,96324.03
2022-11-30T23:41:32.135Z,96317.47
2022-11-30T23:43:59.941Z,96307.13
2022-11-30T23:46:27.750Z,96306.13
2022-11-30T23:48:55.944Z,96297.31
2022-11-30T23:51:24.681Z,96293.78
2022-11-30T23:53:54.117Z,96304.91
2022-11-30T23:56:23.551Z,96309.56
2022-11-30T23:58:52.042Z,96310.25
